EYPA/PLQ METAR and TAF weather

Enter ICAO airport designator
Station Type Date Time Source
EYPA METAR 2018/10/16 14:20 UTC NOAA

EYPA 161420Z 16004KT CAVOK 15/10 Q1021


Station Type Date Time Source
EYPA Decoded METAR 2018/10/16 14:20 UTC NOAA

Palanga Intl., Lithuania (EYPA) 55-55-12N 021-03E
Oct 16, 2018 - 10:20 AM EDT / 2018.10.16 1420 UTC
Wind: from the SSE (160 degrees) at 5 MPH (4 KT):0
Visibility: greater than 7 mile(s):0
Temperature: 59 F (15 C)
Dew Point: 50 F (10 C)
Relative Humidity: 72%
Pressure (altimeter): 30.15 in. Hg (1021 hPa)
ob: EYPA 161420Z 16004KT CAVOK 15/10 Q1021
cycle: 14

Station Type Date Time Source
EYPA TAF 2018/10/16 12:05 UTC NOAA

TAF EYPA 161102Z 1612/1712 16008KT 9000 NSC
BECMG 1619/1620 VRB04KT
TEMPO 1622/1706 2000 MIFG BR SCT005
BECMG 1708/1709 17008KT


Example: see airport list